YTOG weather

Togo Station Airport
New South Wales, Australia

Public forecast

Using degrees Celsius for public forecast. Weather courtesy of forecast.io.

METAR (pilot weather report)

Closest report is Narrabri Airport, 20.9 nm (38.7 km) SE. Retrieved 2019/06/27 11:00 UTC (57 minutes ago):

YNBR 271100Z AUTO 14007KT 9999 // NCD 15/06 Q1030

TAF (pilot weather forecast)

Closest forecast is Tamworth Airport, 90.8 nm (168.1 km) SE. Retrieved 2019/06/27 06:36 UTC (5 hours ago):

TAF YSTW 270507Z 2706/2724 11012KT CAVOK FM270800 13008KT CAVOK FM271200 11005KT 9999 SCT020